sensor_id;sensor_type;location;lat;lon;timestamp;P1;durP1;ratioP1;P2;durP2;ratioP2
22046;SDS011;11187;49.412;20.956;2023-06-10T00:02:03;36.40;;;32.90;;
22046;SDS011;11187;49.412;20.956;2023-06-10T00:04:37;34.13;;;31.42;;
22046;SDS011;11187;49.412;20.956;2023-06-10T00:07:23;71.63;;;31.83;;
22046;SDS011;11187;49.412;20.956;2023-06-10T00:09:57;39.88;;;32.50;;
22046;SDS011;11187;49.412;20.956;2023-06-10T00:12:44;34.20;;;30.70;;
22046;SDS011;11187;49.412;20.956;2023-06-10T00:15:18;34.35;;;31.52;;
22046;SDS011;11187;49.412;20.956;2023-06-10T00:18:11;31.77;;;29.65;;
22046;SDS011;11187;49.412;20.956;2023-06-10T00:21:07;32.42;;;29.85;;
22046;SDS011;11187;49.412;20.956;2023-06-10T00:24:01;32.92;;;30.85;;
22046;SDS011;11187;49.412;20.956;2023-06-10T00:26:38;33.38;;;31.00;;
22046;SDS011;11187;49.412;20.956;2023-06-10T00:29:25;34.15;;;31.27;;
22046;SDS011;11187;49.412;20.956;2023-06-10T00:32:19;33.88;;;31.10;;
22046;SDS011;11187;49.412;20.956;2023-06-10T00:35:13;34.42;;;31.45;;
22046;SDS011;11187;49.412;20.956;2023-06-10T00:37:47;33.92;;;31.13;;
22046;SDS011;11187;49.412;20.956;2023-06-10T00:40:40;32.90;;;30.40;;
22046;SDS011;11187;49.412;20.956;2023-06-10T00:43:34;34.35;;;31.00;;
22046;SDS011;11187;49.412;20.956;2023-06-10T00:46:08;32.90;;;30.33;;
22046;SDS011;11187;49.412;20.956;2023-06-10T00:48:56;33.20;;;29.83;;
22046;SDS011;11187;49.412;20.956;2023-06-10T00:51:30;37.38;;;33.90;;
22046;SDS011;11187;49.412;20.956;2023-06-10T00:54:16;34.80;;;31.50;;
22046;SDS011;11187;49.412;20.956;2023-06-10T00:56:50;34.75;;;31.88;;
22046;SDS011;11187;49.412;20.956;2023-06-10T00:59:37;34.72;;;31.67;;
22046;SDS011;11187;49.412;20.956;2023-06-10T01:02:12;34.35;;;31.73;;
22046;SDS011;11187;49.412;20.956;2023-06-10T01:04:59;35.30;;;32.33;;
22046;SDS011;11187;49.412;20.956;2023-06-10T01:10:50;33.67;;;31.35;;
22046;SDS011;11187;49.412;20.956;2023-06-10T01:13:32;36.70;;;32.88;;
22046;SDS011;11187;49.412;20.956;2023-06-10T01:16:29;35.83;;;32.88;;
22046;SDS011;11187;49.412;20.956;2023-06-10T01:19:03;33.80;;;31.35;;
22046;SDS011;11187;49.412;20.956;2023-06-10T01:21:50;34.95;;;32.00;;
22046;SDS011;11187;49.412;20.956;2023-06-10T01:24:25;33.35;;;30.67;;
22046;SDS011;11187;49.412;20.956;2023-06-10T01:27:14;33.28;;;31.00;;
22046;SDS011;11187;49.412;20.956;2023-06-10T01:29:54;34.47;;;31.80;;
22046;SDS011;11187;49.412;20.956;2023-06-10T01:33:25;33.30;;;30.83;;
22046;SDS011;11187;49.412;20.956;2023-06-10T01:36:22;33.22;;;31.13;;
22046;SDS011;11187;49.412;20.956;2023-06-10T01:39:18;34.88;;;30.75;;
22046;SDS011;11187;49.412;20.956;2023-06-10T01:41:55;33.05;;;30.63;;
22046;SDS011;11187;49.412;20.956;2023-06-10T01:44:42;33.58;;;31.02;;
22046;SDS011;11187;49.412;20.956;2023-06-10T01:47:16;34.50;;;32.22;;
22046;SDS011;11187;49.412;20.956;2023-06-10T01:50:09;34.00;;;31.17;;
22046;SDS011;11187;49.412;20.956;2023-06-10T01:52:43;33.45;;;30.73;;
22046;SDS011;11187;49.412;20.956;2023-06-10T01:55:29;35.22;;;31.02;;
22046;SDS011;11187;49.412;20.956;2023-06-10T01:58:03;33.20;;;30.65;;
22046;SDS011;11187;49.412;20.956;2023-06-10T02:00:49;33.78;;;31.67;;
22046;SDS011;11187;49.412;20.956;2023-06-10T02:03:23;33.78;;;31.42;;
22046;SDS011;11187;49.412;20.956;2023-06-10T02:06:09;33.67;;;31.23;;
22046;SDS011;11187;49.412;20.956;2023-06-10T02:08:43;32.78;;;30.67;;
22046;SDS011;11187;49.412;20.956;2023-06-10T02:11:29;33.65;;;31.55;;
22046;SDS011;11187;49.412;20.956;2023-06-10T02:14:03;31.70;;;29.70;;
22046;SDS011;11187;49.412;20.956;2023-06-10T02:16:49;34.35;;;31.38;;
22046;SDS011;11187;49.412;20.956;2023-06-10T02:19:24;34.03;;;31.05;;
22046;SDS011;11187;49.412;20.956;2023-06-10T02:22:10;33.65;;;31.15;;
22046;SDS011;11187;49.412;20.956;2023-06-10T02:24:44;35.33;;;32.13;;
22046;SDS011;11187;49.412;20.956;2023-06-10T02:27:37;36.50;;;33.10;;
22046;SDS011;11187;49.412;20.956;2023-06-10T02:30:31;35.55;;;32.60;;
22046;SDS011;11187;49.412;20.956;2023-06-10T02:33:25;33.70;;;30.77;;
22046;SDS011;11187;49.412;20.956;2023-06-10T02:36:00;32.83;;;30.63;;
22046;SDS011;11187;49.412;20.956;2023-06-10T02:38:53;32.92;;;30.20;;
22046;SDS011;11187;49.412;20.956;2023-06-10T02:41:47;33.95;;;31.65;;
22046;SDS011;11187;49.412;20.956;2023-06-10T02:44:21;32.50;;;30.25;;
22046;SDS011;11187;49.412;20.956;2023-06-10T02:47:07;33.40;;;30.63;;
22046;SDS011;11187;49.412;20.956;2023-06-10T02:49:41;32.65;;;29.70;;
22046;SDS011;11187;49.412;20.956;2023-06-10T02:52:27;31.98;;;29.83;;
22046;SDS011;11187;49.412;20.956;2023-06-10T02:55:01;31.52;;;29.52;;
22046;SDS011;11187;49.412;20.956;2023-06-10T02:57:47;31.70;;;29.70;;
22046;SDS011;11187;49.412;20.956;2023-06-10T03:00:21;33.33;;;30.85;;
22046;SDS011;11187;49.412;20.956;2023-06-10T03:03:07;33.72;;;31.05;;
22046;SDS011;11187;49.412;20.956;2023-06-10T03:05:41;32.78;;;30.25;;
22046;SDS011;11187;49.412;20.956;2023-06-10T03:08:28;33.40;;;31.02;;
22046;SDS011;11187;49.412;20.956;2023-06-10T03:11:02;34.05;;;31.13;;
22046;SDS011;11187;49.412;20.956;2023-06-10T03:13:48;35.63;;;30.73;;
22046;SDS011;11187;49.412;20.956;2023-06-10T03:16:22;34.13;;;31.55;;
22046;SDS011;11187;49.412;20.956;2023-06-10T03:19:18;33.25;;;30.42;;
22046;SDS011;11187;49.412;20.956;2023-06-10T03:21:57;32.55;;;30.17;;
22046;SDS011;11187;49.412;20.956;2023-06-10T03:24:53;33.75;;;31.30;;
22046;SDS011;11187;49.412;20.956;2023-06-10T03:27:28;35.45;;;32.08;;
22046;SDS011;11187;49.412;20.956;2023-06-10T03:30:15;35.22;;;32.10;;
22046;SDS011;11187;49.412;20.956;2023-06-10T03:33:09;35.75;;;32.72;;
22046;SDS011;11187;49.412;20.956;2023-06-10T03:36:04;36.08;;;32.95;;
22046;SDS011;11187;49.412;20.956;2023-06-10T03:38:57;36.22;;;33.58;;
22046;SDS011;11187;49.412;20.956;2023-06-10T03:41:31;36.70;;;33.28;;
22046;SDS011;11187;49.412;20.956;2023-06-10T03:44:17;36.65;;;33.53;;
22046;SDS011;11187;49.412;20.956;2023-06-10T03:46:51;36.47;;;33.13;;
22046;SDS011;11187;49.412;20.956;2023-06-10T03:49:39;46.90;;;34.47;;
22046;SDS011;11187;49.412;20.956;2023-06-10T03:52:13;43.15;;;33.60;;
22046;SDS011;11187;49.412;20.956;2023-06-10T03:54:59;37.90;;;34.13;;
22046;SDS011;11187;49.412;20.956;2023-06-10T03:57:33;37.90;;;34.38;;
22046;SDS011;11187;49.412;20.956;2023-06-10T04:00:27;43.85;;;36.42;;
22046;SDS011;11187;49.412;20.956;2023-06-10T04:03:27;38.47;;;34.85;;
22046;SDS011;11187;49.412;20.956;2023-06-10T04:06:01;55.67;;;34.40;;
22046;SDS011;11187;49.412;20.956;2023-06-10T04:08:55;37.75;;;33.80;;
22046;SDS011;11187;49.412;20.956;2023-06-10T04:11:49;78.13;;;35.78;;
22046;SDS011;11187;49.412;20.956;2023-06-10T04:14:23;45.30;;;33.78;;
22046;SDS011;11187;49.412;20.956;2023-06-10T04:17:09;35.63;;;31.90;;
22046;SDS011;11187;49.412;20.956;2023-06-10T04:19:43;35.28;;;32.38;;
22046;SDS011;11187;49.412;20.956;2023-06-10T04:22:29;37.50;;;33.55;;
22046;SDS011;11187;49.412;20.956;2023-06-10T04:25:03;36.63;;;33.65;;
22046;SDS011;11187;49.412;20.956;2023-06-10T04:27:56;35.70;;;33.25;;
22046;SDS011;11187;49.412;20.956;2023-06-10T04:30:50;38.78;;;34.88;;
22046;SDS011;11187;49.412;20.956;2023-06-10T04:33:24;35.78;;;32.70;;
22046;SDS011;11187;49.412;20.956;2023-06-10T04:36:17;36.25;;;33.40;;
22046;SDS011;11187;49.412;20.956;2023-06-10T04:39:11;36.10;;;33.00;;
22046;SDS011;11187;49.412;20.956;2023-06-10T04:41:45;35.45;;;32.65;;
22046;SDS011;11187;49.412;20.956;2023-06-10T04:44:39;35.70;;;33.03;;
22046;SDS011;11187;49.412;20.956;2023-06-10T04:47:13;35.30;;;32.60;;
22046;SDS011;11187;49.412;20.956;2023-06-10T04:50:00;37.40;;;34.05;;
22046;SDS011;11187;49.412;20.956;2023-06-10T04:52:34;36.10;;;33.08;;
22046;SDS011;11187;49.412;20.956;2023-06-10T04:55:20;36.50;;;34.10;;
22046;SDS011;11187;49.412;20.956;2023-06-10T04:57:54;35.28;;;32.55;;
22046;SDS011;11187;49.412;20.956;2023-06-10T05:00:41;35.20;;;32.53;;
22046;SDS011;11187;49.412;20.956;2023-06-10T05:03:15;32.90;;;30.80;;
22046;SDS011;11187;49.412;20.956;2023-06-10T05:06:01;33.55;;;31.35;;
22046;SDS011;11187;49.412;20.956;2023-06-10T05:08:35;33.45;;;31.30;;
22046;SDS011;11187;49.412;20.956;2023-06-10T05:11:21;32.50;;;30.30;;
22046;SDS011;11187;49.412;20.956;2023-06-10T05:13:55;33.70;;;31.10;;
22046;SDS011;11187;49.412;20.956;2023-06-10T05:16:41;34.88;;;31.90;;
22046;SDS011;11187;49.412;20.956;2023-06-10T05:19:16;34.15;;;31.90;;
22046;SDS011;11187;49.412;20.956;2023-06-10T05:22:03;34.53;;;32.33;;
22046;SDS011;11187;49.412;20.956;2023-06-10T05:24:36;34.03;;;31.73;;
22046;SDS011;11187;49.412;20.956;2023-06-10T05:27:23;31.23;;;29.17;;
22046;SDS011;11187;49.412;20.956;2023-06-10T05:29:57;32.45;;;29.52;;
22046;SDS011;11187;49.412;20.956;2023-06-10T05:32:44;31.55;;;29.23;;
22046;SDS011;11187;49.412;20.956;2023-06-10T05:35:17;33.45;;;28.40;;
22046;SDS011;11187;49.412;20.956;2023-06-10T05:38:10;31.55;;;29.35;;
22046;SDS011;11187;49.412;20.956;2023-06-10T05:41:05;31.63;;;29.23;;
22046;SDS011;11187;49.412;20.956;2023-06-10T05:43:38;33.10;;;29.63;;
22046;SDS011;11187;49.412;20.956;2023-06-10T05:46:24;30.60;;;28.05;;
22046;SDS011;11187;49.412;20.956;2023-06-10T05:48:58;32.88;;;29.63;;
22046;SDS011;11187;49.412;20.956;2023-06-10T05:51:45;32.33;;;29.60;;
22046;SDS011;11187;49.412;20.956;2023-06-10T05:54:19;31.15;;;28.98;;
22046;SDS011;11187;49.412;20.956;2023-06-10T05:57:09;29.98;;;27.30;;
22046;SDS011;11187;49.412;20.956;2023-06-10T05:59:43;31.08;;;28.42;;
22046;SDS011;11187;49.412;20.956;2023-06-10T06:02:31;31.35;;;28.67;;
22046;SDS011;11187;49.412;20.956;2023-06-10T06:05:05;34.15;;;31.20;;
22046;SDS011;11187;49.412;20.956;2023-06-10T06:07:56;32.80;;;29.80;;
22046;SDS011;11187;49.412;20.956;2023-06-10T06:10:29;32.22;;;30.10;;
22046;SDS011;11187;49.412;20.956;2023-06-10T06:13:23;34.03;;;29.30;;
22046;SDS011;11187;49.412;20.956;2023-06-10T06:16:17;31.75;;;28.98;;
22046;SDS011;11187;49.412;20.956;2023-06-10T06:18:51;40.13;;;31.95;;
22046;SDS011;11187;49.412;20.956;2023-06-10T06:21:38;31.95;;;29.48;;
22046;SDS011;11187;49.412;20.956;2023-06-10T06:24:11;30.48;;;27.42;;
22046;SDS011;11187;49.412;20.956;2023-06-10T06:27:05;30.35;;;27.52;;
22046;SDS011;11187;49.412;20.956;2023-06-10T06:29:59;29.92;;;27.70;;
22046;SDS011;11187;49.412;20.956;2023-06-10T06:32:53;30.27;;;27.52;;
22046;SDS011;11187;49.412;20.956;2023-06-10T06:35:26;30.98;;;28.25;;
22046;SDS011;11187;49.412;20.956;2023-06-10T06:38:14;30.55;;;27.73;;
22046;SDS011;11187;49.412;20.956;2023-06-10T06:40:47;30.95;;;28.25;;
22046;SDS011;11187;49.412;20.956;2023-06-10T06:43:34;29.67;;;27.27;;
22046;SDS011;11187;49.412;20.956;2023-06-10T06:46:07;30.65;;;27.88;;
22046;SDS011;11187;49.412;20.956;2023-06-10T06:48:57;28.25;;;25.58;;
22046;SDS011;11187;49.412;20.956;2023-06-10T06:51:30;29.15;;;26.75;;
22046;SDS011;11187;49.412;20.956;2023-06-10T06:54:24;32.03;;;29.00;;
22046;SDS011;11187;49.412;20.956;2023-06-10T06:57:18;31.63;;;29.00;;
22046;SDS011;11187;49.412;20.956;2023-06-10T07:00:13;60.70;;;32.50;;
22046;SDS011;11187;49.412;20.956;2023-06-10T07:03:07;30.42;;;27.55;;
22046;SDS011;11187;49.412;20.956;2023-06-10T07:05:59;37.88;;;29.02;;
22046;SDS011;11187;49.412;20.956;2023-06-10T07:08:46;36.05;;;30.73;;
22046;SDS011;11187;49.412;20.956;2023-06-10T07:11:19;32.65;;;29.83;;
22046;SDS011;11187;49.412;20.956;2023-06-10T07:14:06;50.65;;;31.48;;
22046;SDS011;11187;49.412;20.956;2023-06-10T07:16:39;39.60;;;32.13;;
22046;SDS011;11187;49.412;20.956;2023-06-10T07:19:28;34.92;;;31.23;;
22046;SDS011;11187;49.412;20.956;2023-06-10T07:22:01;40.25;;;29.83;;
22046;SDS011;11187;49.412;20.956;2023-06-10T07:24:55;33.25;;;30.02;;
22046;SDS011;11187;49.412;20.956;2023-06-10T07:27:49;43.35;;;29.23;;
22046;SDS011;11187;49.412;20.956;2023-06-10T07:30:22;34.60;;;31.45;;
22046;SDS011;11187;49.412;20.956;2023-06-10T07:33:16;33.45;;;29.90;;
22046;SDS011;11187;49.412;20.956;2023-06-10T07:35:49;36.83;;;30.55;;
22046;SDS011;11187;49.412;20.956;2023-06-10T07:38:43;49.00;;;30.00;;
22046;SDS011;11187;49.412;20.956;2023-06-10T07:41:37;33.05;;;28.77;;
22046;SDS011;11187;49.412;20.956;2023-06-10T07:44:13;30.38;;;27.55;;
22046;SDS011;11187;49.412;20.956;2023-06-10T07:47:07;28.77;;;26.25;;
22046;SDS011;11187;49.412;20.956;2023-06-10T07:49:40;33.25;;;26.83;;
22046;SDS011;11187;49.412;20.956;2023-06-10T07:52:34;42.75;;;26.88;;
22046;SDS011;11187;49.412;20.956;2023-06-10T07:55:28;55.97;;;28.45;;
22046;SDS011;11187;49.412;20.956;2023-06-10T07:58:02;39.65;;;26.85;;
22046;SDS011;11187;49.412;20.956;2023-06-10T08:00:49;29.38;;;26.63;;
22046;SDS011;11187;49.412;20.956;2023-06-10T08:03:22;33.17;;;26.02;;
22046;SDS011;11187;49.412;20.956;2023-06-10T08:06:09;36.58;;;28.08;;
22046;SDS011;11187;49.412;20.956;2023-06-10T08:08:44;29.40;;;26.92;;
22046;SDS011;11187;49.412;20.956;2023-06-10T08:11:38;46.55;;;28.48;;
22046;SDS011;11187;49.412;20.956;2023-06-10T08:14:11;28.98;;;26.00;;
22046;SDS011;11187;49.412;20.956;2023-06-10T08:17:05;27.75;;;24.85;;
22046;SDS011;11187;49.412;20.956;2023-06-10T08:19:59;49.92;;;29.17;;
22046;SDS011;11187;49.412;20.956;2023-06-10T08:22:53;46.38;;;29.85;;
22046;SDS011;11187;49.412;20.956;2023-06-10T08:25:27;34.42;;;29.15;;
22046;SDS011;11187;49.412;20.956;2023-06-10T08:28:14;35.95;;;27.70;;
22046;SDS011;11187;49.412;20.956;2023-06-10T08:30:47;31.25;;;28.10;;
22046;SDS011;11187;49.412;20.956;2023-06-10T08:33:36;31.95;;;28.90;;
22046;SDS011;11187;49.412;20.956;2023-06-10T08:36:09;35.83;;;32.20;;
22046;SDS011;11187;49.412;20.956;2023-06-10T08:38:56;35.53;;;31.85;;
22046;SDS011;11187;49.412;20.956;2023-06-10T08:41:30;31.88;;;28.85;;
22046;SDS011;11187;49.412;20.956;2023-06-10T08:44:22;44.85;;;30.52;;
22046;SDS011;11187;49.412;20.956;2023-06-10T08:47:01;32.45;;;29.15;;
22046;SDS011;11187;49.412;20.956;2023-06-10T08:49:57;41.85;;;29.77;;
22046;SDS011;11187;49.412;20.956;2023-06-10T08:52:40;43.65;;;30.45;;
22046;SDS011;11187;49.412;20.956;2023-06-10T08:55:37;40.08;;;34.97;;
22046;SDS011;11187;49.412;20.956;2023-06-10T08:58:35;42.33;;;35.42;;
22046;SDS011;11187;49.412;20.956;2023-06-10T09:01:30;45.22;;;33.88;;
22046;SDS011;11187;49.412;20.956;2023-06-10T09:04:24;34.83;;;31.67;;
22046;SDS011;11187;49.412;20.956;2023-06-10T09:06:58;37.72;;;33.78;;
22046;SDS011;11187;49.412;20.956;2023-06-10T09:09:48;38.90;;;34.92;;
22046;SDS011;11187;49.412;20.956;2023-06-10T09:12:22;36.63;;;33.08;;
22046;SDS011;11187;49.412;20.956;2023-06-10T09:15:17;32.80;;;29.48;;
22046;SDS011;11187;49.412;20.956;2023-06-10T09:18:11;31.27;;;28.67;;
22046;SDS011;11187;49.412;20.956;2023-06-10T09:21:05;34.42;;;30.70;;
22046;SDS011;11187;49.412;20.956;2023-06-10T09:23:38;34.08;;;30.33;;
22046;SDS011;11187;49.412;20.956;2023-06-10T09:26:27;37.85;;;33.92;;
22046;SDS011;11187;49.412;20.956;2023-06-10T09:29:04;32.67;;;29.65;;
22046;SDS011;11187;49.412;20.956;2023-06-10T09:31:53;53.58;;;29.83;;
22046;SDS011;11187;49.412;20.956;2023-06-10T09:34:26;34.35;;;30.77;;
22046;SDS011;11187;49.412;20.956;2023-06-10T09:37:21;35.33;;;31.80;;
22046;SDS011;11187;49.412;20.956;2023-06-10T09:40:04;36.47;;;32.20;;
22046;SDS011;11187;49.412;20.956;2023-06-10T09:42:59;36.92;;;29.17;;
22046;SDS011;11187;49.412;20.956;2023-06-10T09:45:33;34.10;;;30.67;;
22046;SDS011;11187;49.412;20.956;2023-06-10T09:48:27;34.38;;;30.85;;
22046;SDS011;11187;49.412;20.956;2023-06-10T09:51:21;33.92;;;30.83;;
22046;SDS011;11187;49.412;20.956;2023-06-10T09:53:55;48.97;;;32.20;;
22046;SDS011;11187;49.412;20.956;2023-06-10T09:56:46;49.55;;;30.35;;
22046;SDS011;11187;49.412;20.956;2023-06-10T09:59:30;35.42;;;30.27;;
22046;SDS011;11187;49.412;20.956;2023-06-10T10:02:24;54.28;;;31.33;;
22046;SDS011;11187;49.412;20.956;2023-06-10T10:05:19;38.45;;;31.17;;
22046;SDS011;11187;49.412;20.956;2023-06-10T10:07:54;38.03;;;32.83;;
22046;SDS011;11187;49.412;20.956;2023-06-10T10:10:41;36.60;;;30.90;;
22046;SDS011;11187;49.412;20.956;2023-06-10T10:13:14;34.88;;;31.33;;
22046;SDS011;11187;49.412;20.956;2023-06-10T10:16:04;35.33;;;31.38;;
22046;SDS011;11187;49.412;20.956;2023-06-10T10:18:49;35.05;;;31.05;;
22046;SDS011;11187;49.412;20.956;2023-06-10T10:21:54;42.40;;;31.10;;
22046;SDS011;11187;49.412;20.956;2023-06-10T10:24:34;35.40;;;31.58;;
22046;SDS011;11187;49.412;20.956;2023-06-10T10:27:35;33.70;;;30.60;;
22046;SDS011;11187;49.412;20.956;2023-06-10T10:30:14;35.80;;;31.27;;
22046;SDS011;11187;49.412;20.956;2023-06-10T10:36:03;34.10;;;30.63;;
22046;SDS011;11187;49.412;20.956;2023-06-10T10:38:58;40.47;;;31.48;;
22046;SDS011;11187;49.412;20.956;2023-06-10T10:41:34;42.15;;;30.33;;
22046;SDS011;11187;49.412;20.956;2023-06-10T10:44:30;32.85;;;29.30;;
22046;SDS011;11187;49.412;20.956;2023-06-10T10:47:04;35.55;;;31.85;;
22046;SDS011;11187;49.412;20.956;2023-06-10T10:49:55;33.95;;;30.45;;
22046;SDS011;11187;49.412;20.956;2023-06-10T10:52:46;32.85;;;29.42;;
22046;SDS011;11187;49.412;20.956;2023-06-10T10:55:47;34.97;;;29.80;;
22046;SDS011;11187;49.412;20.956;2023-06-10T10:58:31;36.92;;;28.85;;
22046;SDS011;11187;49.412;20.956;2023-06-10T11:01:25;37.03;;;29.17;;
22046;SDS011;11187;49.412;20.956;2023-06-10T11:04:13;30.30;;;27.65;;
22046;SDS011;11187;49.412;20.956;2023-06-10T11:07:08;30.73;;;27.52;;
22046;SDS011;11187;49.412;20.956;2023-06-10T11:09:57;31.35;;;28.67;;
22046;SDS011;11187;49.412;20.956;2023-06-10T11:13:08;30.23;;;27.17;;
22046;SDS011;11187;49.412;20.956;2023-06-10T11:15:47;41.17;;;28.98;;
22046;SDS011;11187;49.412;20.956;2023-06-10T11:18:38;36.15;;;29.08;;
22046;SDS011;11187;49.412;20.956;2023-06-10T11:21:12;32.63;;;27.88;;
22046;SDS011;11187;49.412;20.956;2023-06-10T11:23:59;33.20;;;25.77;;
22046;SDS011;11187;49.412;20.956;2023-06-10T11:26:32;41.90;;;28.45;;
22046;SDS011;11187;49.412;20.956;2023-06-10T11:29:20;30.65;;;27.17;;
22046;SDS011;11187;49.412;20.956;2023-06-10T11:31:53;33.97;;;26.60;;
22046;SDS011;11187;49.412;20.956;2023-06-10T11:34:40;42.28;;;27.52;;
22046;SDS011;11187;49.412;20.956;2023-06-10T11:37:16;30.92;;;28.02;;
22046;SDS011;11187;49.412;20.956;2023-06-10T11:40:04;30.60;;;27.45;;
22046;SDS011;11187;49.412;20.956;2023-06-10T11:42:42;33.15;;;28.52;;
22046;SDS011;11187;49.412;20.956;2023-06-10T11:45:38;29.02;;;26.08;;
22046;SDS011;11187;49.412;20.956;2023-06-10T11:48:14;30.35;;;27.50;;
22046;SDS011;11187;49.412;20.956;2023-06-10T11:51:04;35.47;;;29.27;;
22046;SDS011;11187;49.412;20.956;2023-06-10T11:53:40;33.47;;;29.70;;
22046;SDS011;11187;49.412;20.956;2023-06-10T11:56:37;40.17;;;29.05;;
22046;SDS011;11187;49.412;20.956;2023-06-10T11:59:10;31.70;;;29.05;;
22046;SDS011;11187;49.412;20.956;2023-06-10T12:01:58;32.63;;;29.38;;
22046;SDS011;11187;49.412;20.956;2023-06-10T12:04:31;32.10;;;28.75;;
22046;SDS011;11187;49.412;20.956;2023-06-10T12:07:18;44.95;;;30.20;;
22046;SDS011;11187;49.412;20.956;2023-06-10T12:09:58;33.75;;;30.45;;
22046;SDS011;11187;49.412;20.956;2023-06-10T12:13:06;40.53;;;28.35;;
22046;SDS011;11187;49.412;20.956;2023-06-10T12:15:40;37.67;;;28.60;;
22046;SDS011;11187;49.412;20.956;2023-06-10T12:18:36;38.72;;;28.75;;
22046;SDS011;11187;49.412;20.956;2023-06-10T12:21:17;37.30;;;29.48;;
22046;SDS011;11187;49.412;20.956;2023-06-10T12:24:12;31.13;;;27.63;;
22046;SDS011;11187;49.412;20.956;2023-06-10T12:27:06;31.00;;;27.67;;
22046;SDS011;11187;49.412;20.956;2023-06-10T12:29:50;30.25;;;27.10;;
22046;SDS011;11187;49.412;20.956;2023-06-10T12:32:44;31.50;;;28.58;;
22046;SDS011;11187;49.412;20.956;2023-06-10T12:35:19;31.90;;;27.17;;
22046;SDS011;11187;49.412;20.956;2023-06-10T12:38:25;31.25;;;27.70;;
22046;SDS011;11187;49.412;20.956;2023-06-10T12:41:20;30.98;;;27.77;;
22046;SDS011;11187;49.412;20.956;2023-06-10T12:43:54;27.63;;;24.75;;
22046;SDS011;11187;49.412;20.956;2023-06-10T12:46:41;39.30;;;27.17;;
22046;SDS011;11187;49.412;20.956;2023-06-10T12:49:20;29.65;;;26.45;;
22046;SDS011;11187;49.412;20.956;2023-06-10T12:52:08;42.50;;;27.02;;
22046;SDS011;11187;49.412;20.956;2023-06-10T12:54:41;35.65;;;25.08;;
22046;SDS011;11187;49.412;20.956;2023-06-10T12:57:35;27.48;;;24.95;;
22046;SDS011;11187;49.412;20.956;2023-06-10T13:00:29;27.73;;;25.20;;
22046;SDS011;11187;49.412;20.956;2023-06-10T13:03:23;27.30;;;25.13;;
22046;SDS011;11187;49.412;20.956;2023-06-10T13:05:56;35.72;;;25.75;;
22046;SDS011;11187;49.412;20.956;2023-06-10T13:08:43;35.50;;;28.77;;
22046;SDS011;11187;49.412;20.956;2023-06-10T13:11:16;34.58;;;26.98;;
22046;SDS011;11187;49.412;20.956;2023-06-10T13:14:14;27.80;;;24.98;;
22046;SDS011;11187;49.412;20.956;2023-06-10T13:17:08;28.25;;;25.42;;
22046;SDS011;11187;49.412;20.956;2023-06-10T13:19:41;32.38;;;25.50;;
22046;SDS011;11187;49.412;20.956;2023-06-10T13:22:43;32.28;;;26.50;;
22046;SDS011;11187;49.412;20.956;2023-06-10T13:25:40;29.48;;;23.92;;
22046;SDS011;11187;49.412;20.956;2023-06-10T13:28:13;27.80;;;24.83;;
22046;SDS011;11187;49.412;20.956;2023-06-10T13:31:00;26.87;;;24.13;;
22046;SDS011;11187;49.412;20.956;2023-06-10T13:33:54;27.45;;;24.55;;
22046;SDS011;11187;49.412;20.956;2023-06-10T13:36:27;34.50;;;24.50;;
22046;SDS011;11187;49.412;20.956;2023-06-10T13:39:14;26.30;;;23.55;;
22046;SDS011;11187;49.412;20.956;2023-06-10T13:41:48;24.65;;;22.60;;
22046;SDS011;11187;49.412;20.956;2023-06-10T13:44:44;26.38;;;24.00;;
22046;SDS011;11187;49.412;20.956;2023-06-10T13:47:17;27.15;;;24.40;;
22046;SDS011;11187;49.412;20.956;2023-06-10T13:50:11;29.15;;;24.38;;
22046;SDS011;11187;49.412;20.956;2023-06-10T13:52:45;25.50;;;22.48;;
22046;SDS011;11187;49.412;20.956;2023-06-10T13:55:43;31.70;;;25.65;;
22046;SDS011;11187;49.412;20.956;2023-06-10T13:58:37;29.60;;;26.80;;
22046;SDS011;11187;49.412;20.956;2023-06-10T14:01:12;28.88;;;25.98;;
22046;SDS011;11187;49.412;20.956;2023-06-10T14:03:59;31.40;;;26.58;;
22046;SDS011;11187;49.412;20.956;2023-06-10T14:06:35;31.30;;;28.20;;
22046;SDS011;11187;49.412;20.956;2023-06-10T14:09:29;34.80;;;28.25;;
22046;SDS011;11187;49.412;20.956;2023-06-10T14:12:02;30.65;;;27.80;;
22046;SDS011;11187;49.412;20.956;2023-06-10T14:14:51;31.08;;;28.52;;
22046;SDS011;11187;49.412;20.956;2023-06-10T14:17:24;31.25;;;28.70;;
22046;SDS011;11187;49.412;20.956;2023-06-10T14:20:18;33.17;;;30.08;;
22046;SDS011;11187;49.412;20.956;2023-06-10T14:23:13;33.33;;;30.25;;
22046;SDS011;11187;49.412;20.956;2023-06-10T14:25:46;35.28;;;31.90;;
22046;SDS011;11187;49.412;20.956;2023-06-10T14:28:33;33.47;;;30.10;;
22046;SDS011;11187;49.412;20.956;2023-06-10T14:31:06;34.53;;;31.40;;
22046;SDS011;11187;49.412;20.956;2023-06-10T14:33:53;36.30;;;31.90;;
22046;SDS011;11187;49.412;20.956;2023-06-10T14:36:26;35.55;;;32.30;;
22046;SDS011;11187;49.412;20.956;2023-06-10T14:39:13;34.53;;;31.42;;
22046;SDS011;11187;49.412;20.956;2023-06-10T14:41:46;35.92;;;32.67;;
22046;SDS011;11187;49.412;20.956;2023-06-10T14:44:33;36.05;;;33.03;;
22046;SDS011;11187;49.412;20.956;2023-06-10T14:47:06;35.85;;;32.13;;
22046;SDS011;11187;49.412;20.956;2023-06-10T14:50:00;36.92;;;31.50;;
22046;SDS011;11187;49.412;20.956;2023-06-10T14:52:33;33.60;;;31.05;;
22046;SDS011;11187;49.412;20.956;2023-06-10T14:55:27;35.20;;;32.35;;
22046;SDS011;11187;49.412;20.956;2023-06-10T14:58:00;35.72;;;31.98;;
22046;SDS011;11187;49.412;20.956;2023-06-10T15:00:47;32.90;;;29.98;;
22046;SDS011;11187;49.412;20.956;2023-06-10T15:03:20;34.67;;;31.95;;
22046;SDS011;11187;49.412;20.956;2023-06-10T15:06:14;33.78;;;31.00;;
22046;SDS011;11187;49.412;20.956;2023-06-10T15:08:49;35.63;;;32.28;;
22046;SDS011;11187;49.412;20.956;2023-06-10T15:11:36;35.72;;;32.75;;
22046;SDS011;11187;49.412;20.956;2023-06-10T15:14:11;35.22;;;31.67;;
22046;SDS011;11187;49.412;20.956;2023-06-10T15:16:58;34.65;;;32.08;;
22046;SDS011;11187;49.412;20.956;2023-06-10T15:19:32;35.05;;;31.80;;
22046;SDS011;11187;49.412;20.956;2023-06-10T15:22:19;35.17;;;31.70;;
22046;SDS011;11187;49.412;20.956;2023-06-10T15:24:52;34.28;;;31.27;;
22046;SDS011;11187;49.412;20.956;2023-06-10T15:27:39;36.38;;;32.67;;
22046;SDS011;11187;49.412;20.956;2023-06-10T15:30:12;36.83;;;33.60;;
22046;SDS011;11187;49.412;20.956;2023-06-10T15:32:59;41.22;;;34.55;;
22046;SDS011;11187;49.412;20.956;2023-06-10T15:35:53;37.00;;;32.90;;
22046;SDS011;11187;49.412;20.956;2023-06-10T15:38:47;33.65;;;30.33;;
22046;SDS011;11187;49.412;20.956;2023-06-10T15:41:22;38.30;;;29.85;;
22046;SDS011;11187;49.412;20.956;2023-06-10T15:44:09;32.50;;;29.15;;
22046;SDS011;11187;49.412;20.956;2023-06-10T15:46:42;34.88;;;31.42;;
22046;SDS011;11187;49.412;20.956;2023-06-10T15:49:36;29.35;;;26.73;;
22046;SDS011;11187;49.412;20.956;2023-06-10T15:52:30;31.15;;;28.02;;
22046;SDS011;11187;49.412;20.956;2023-06-10T15:55:03;31.90;;;29.38;;